sensor_id;sensor_type;location;lat;lon;timestamp;P1;durP1;ratioP1;P2;durP2;ratioP2
16967;SDS011;64862;54.398;10.126;2022-11-14T00:02:02;21.65;;;15.82;;
16967;SDS011;64862;54.398;10.126;2022-11-14T00:04:48;19.60;;;15.38;;
16967;SDS011;64862;54.398;10.126;2022-11-14T00:07:34;20.73;;;15.57;;
16967;SDS011;64862;54.398;10.126;2022-11-14T00:10:20;19.92;;;15.13;;
16967;SDS011;64862;54.398;10.126;2022-11-14T00:13:06;20.95;;;15.27;;
16967;SDS011;64862;54.398;10.126;2022-11-14T00:15:52;21.60;;;15.20;;
16967;SDS011;64862;54.398;10.126;2022-11-14T00:18:38;19.70;;;15.65;;
16967;SDS011;64862;54.398;10.126;2022-11-14T00:21:23;21.95;;;16.50;;
16967;SDS011;64862;54.398;10.126;2022-11-14T00:24:09;20.60;;;16.45;;
16967;SDS011;64862;54.398;10.126;2022-11-14T00:26:56;21.80;;;16.50;;
16967;SDS011;64862;54.398;10.126;2022-11-14T00:29:42;22.33;;;16.85;;
16967;SDS011;64862;54.398;10.126;2022-11-14T00:32:28;22.15;;;16.55;;
16967;SDS011;64862;54.398;10.126;2022-11-14T00:35:14;21.15;;;16.52;;
16967;SDS011;64862;54.398;10.126;2022-11-14T00:38:00;22.73;;;17.52;;
16967;SDS011;64862;54.398;10.126;2022-11-14T00:40:46;24.13;;;18.23;;
16967;SDS011;64862;54.398;10.126;2022-11-14T00:43:32;25.75;;;18.08;;
16967;SDS011;64862;54.398;10.126;2022-11-14T00:46:18;25.92;;;18.45;;
16967;SDS011;64862;54.398;10.126;2022-11-14T00:49:03;23.77;;;18.58;;
16967;SDS011;64862;54.398;10.126;2022-11-14T00:51:49;26.42;;;18.70;;
16967;SDS011;64862;54.398;10.126;2022-11-14T00:54:35;26.50;;;19.42;;
16967;SDS011;64862;54.398;10.126;2022-11-14T00:57:20;25.75;;;19.48;;
16967;SDS011;64862;54.398;10.126;2022-11-14T01:00:10;27.23;;;19.73;;
16967;SDS011;64862;54.398;10.126;2022-11-14T01:02:57;27.23;;;19.70;;
16967;SDS011;64862;54.398;10.126;2022-11-14T01:05:43;29.30;;;19.73;;
16967;SDS011;64862;54.398;10.126;2022-11-14T01:08:29;27.85;;;20.15;;
16967;SDS011;64862;54.398;10.126;2022-11-14T01:11:16;28.55;;;20.08;;
16967;SDS011;64862;54.398;10.126;2022-11-14T01:14:06;27.77;;;20.05;;
16967;SDS011;64862;54.398;10.126;2022-11-14T01:16:53;30.98;;;20.38;;
16967;SDS011;64862;54.398;10.126;2022-11-14T01:19:39;25.90;;;18.77;;
16967;SDS011;64862;54.398;10.126;2022-11-14T01:22:24;23.58;;;18.45;;
16967;SDS011;64862;54.398;10.126;2022-11-14T01:25:10;27.77;;;19.13;;
16967;SDS011;64862;54.398;10.126;2022-11-14T01:27:58;28.38;;;19.02;;
16967;SDS011;64862;54.398;10.126;2022-11-14T01:30:44;25.83;;;19.15;;
16967;SDS011;64862;54.398;10.126;2022-11-14T01:33:31;28.48;;;21.25;;
16967;SDS011;64862;54.398;10.126;2022-11-14T01:36:17;27.60;;;20.35;;
16967;SDS011;64862;54.398;10.126;2022-11-14T01:39:03;26.38;;;20.08;;
16967;SDS011;64862;54.398;10.126;2022-11-14T01:41:49;31.30;;;21.88;;
16967;SDS011;64862;54.398;10.126;2022-11-14T01:44:41;31.25;;;21.42;;
16967;SDS011;64862;54.398;10.126;2022-11-14T01:47:29;32.92;;;22.80;;
16967;SDS011;64862;54.398;10.126;2022-11-14T01:50:18;33.72;;;24.05;;
16967;SDS011;64862;54.398;10.126;2022-11-14T01:53:03;35.63;;;23.65;;
16967;SDS011;64862;54.398;10.126;2022-11-14T01:55:49;36.83;;;24.50;;
16967;SDS011;64862;54.398;10.126;2022-11-14T01:58:36;37.47;;;24.58;;
16967;SDS011;64862;54.398;10.126;2022-11-14T02:01:31;37.28;;;25.50;;
16967;SDS011;64862;54.398;10.126;2022-11-14T02:04:20;39.17;;;25.38;;
16967;SDS011;64862;54.398;10.126;2022-11-14T02:07:09;40.30;;;25.48;;
16967;SDS011;64862;54.398;10.126;2022-11-14T02:09:56;39.13;;;26.17;;
16967;SDS011;64862;54.398;10.126;2022-11-14T02:12:45;39.63;;;25.95;;
16967;SDS011;64862;54.398;10.126;2022-11-14T02:15:32;42.03;;;26.60;;
16967;SDS011;64862;54.398;10.126;2022-11-14T02:18:18;40.65;;;25.95;;
16967;SDS011;64862;54.398;10.126;2022-11-14T02:21:05;41.05;;;26.15;;
16967;SDS011;64862;54.398;10.126;2022-11-14T02:23:51;41.95;;;26.52;;
16967;SDS011;64862;54.398;10.126;2022-11-14T02:26:36;42.05;;;26.75;;
16967;SDS011;64862;54.398;10.126;2022-11-14T02:29:22;43.85;;;27.50;;
16967;SDS011;64862;54.398;10.126;2022-11-14T02:32:08;41.80;;;26.13;;
16967;SDS011;64862;54.398;10.126;2022-11-14T02:34:53;41.90;;;26.77;;
16967;SDS011;64862;54.398;10.126;2022-11-14T02:37:40;40.67;;;26.45;;
16967;SDS011;64862;54.398;10.126;2022-11-14T02:40:25;39.53;;;26.23;;
16967;SDS011;64862;54.398;10.126;2022-11-14T02:43:11;43.80;;;27.55;;
16967;SDS011;64862;54.398;10.126;2022-11-14T02:45:57;39.90;;;25.88;;
16967;SDS011;64862;54.398;10.126;2022-11-14T02:48:42;40.80;;;26.90;;
16967;SDS011;64862;54.398;10.126;2022-11-14T02:51:28;41.75;;;26.45;;
16967;SDS011;64862;54.398;10.126;2022-11-14T02:54:15;43.40;;;26.58;;
16967;SDS011;64862;54.398;10.126;2022-11-14T02:57:00;43.92;;;28.25;;
16967;SDS011;64862;54.398;10.126;2022-11-14T02:59:46;41.92;;;26.48;;
16967;SDS011;64862;54.398;10.126;2022-11-14T03:02:32;40.15;;;25.30;;
16967;SDS011;64862;54.398;10.126;2022-11-14T03:05:18;43.85;;;26.40;;
16967;SDS011;64862;54.398;10.126;2022-11-14T03:08:03;42.53;;;26.42;;
16967;SDS011;64862;54.398;10.126;2022-11-14T03:10:50;43.42;;;26.42;;
16967;SDS011;64862;54.398;10.126;2022-11-14T03:13:36;41.08;;;26.38;;
16967;SDS011;64862;54.398;10.126;2022-11-14T03:16:21;40.70;;;25.17;;
16967;SDS011;64862;54.398;10.126;2022-11-14T03:19:07;38.88;;;26.13;;
16967;SDS011;64862;54.398;10.126;2022-11-14T03:21:52;40.92;;;25.80;;
16967;SDS011;64862;54.398;10.126;2022-11-14T03:24:38;39.05;;;24.83;;
16967;SDS011;64862;54.398;10.126;2022-11-14T03:27:25;37.80;;;24.25;;
16967;SDS011;64862;54.398;10.126;2022-11-14T03:30:10;35.45;;;23.55;;
16967;SDS011;64862;54.398;10.126;2022-11-14T03:32:56;38.15;;;24.35;;
16967;SDS011;64862;54.398;10.126;2022-11-14T03:35:42;35.80;;;23.63;;
16967;SDS011;64862;54.398;10.126;2022-11-14T03:38:27;36.17;;;24.10;;
16967;SDS011;64862;54.398;10.126;2022-11-14T03:41:13;39.05;;;24.38;;
16967;SDS011;64862;54.398;10.126;2022-11-14T03:44:00;40.28;;;23.60;;
16967;SDS011;64862;54.398;10.126;2022-11-14T03:46:45;42.88;;;24.92;;
16967;SDS011;64862;54.398;10.126;2022-11-14T03:49:30;37.83;;;23.83;;
16967;SDS011;64862;54.398;10.126;2022-11-14T03:52:16;36.17;;;23.73;;
16967;SDS011;64862;54.398;10.126;2022-11-14T03:55:02;41.67;;;24.25;;
16967;SDS011;64862;54.398;10.126;2022-11-14T03:57:48;39.30;;;24.92;;
16967;SDS011;64862;54.398;10.126;2022-11-14T04:00:35;39.17;;;24.92;;
16967;SDS011;64862;54.398;10.126;2022-11-14T04:03:21;38.30;;;24.80;;
16967;SDS011;64862;54.398;10.126;2022-11-14T04:06:06;36.67;;;24.10;;
16967;SDS011;64862;54.398;10.126;2022-11-14T04:08:52;36.75;;;23.63;;
16967;SDS011;64862;54.398;10.126;2022-11-14T04:11:41;39.17;;;24.25;;
16967;SDS011;64862;54.398;10.126;2022-11-14T04:14:27;39.25;;;24.20;;
16967;SDS011;64862;54.398;10.126;2022-11-14T04:17:14;42.08;;;25.40;;
16967;SDS011;64862;54.398;10.126;2022-11-14T04:19:59;40.03;;;24.65;;
16967;SDS011;64862;54.398;10.126;2022-11-14T04:22:44;40.63;;;25.40;;
16967;SDS011;64862;54.398;10.126;2022-11-14T04:25:30;34.45;;;23.50;;
16967;SDS011;64862;54.398;10.126;2022-11-14T04:28:15;38.13;;;24.83;;
16967;SDS011;64862;54.398;10.126;2022-11-14T04:31:01;37.33;;;24.15;;
16967;SDS011;64862;54.398;10.126;2022-11-14T04:33:48;39.25;;;23.90;;
16967;SDS011;64862;54.398;10.126;2022-11-14T04:36:33;40.85;;;25.23;;
16967;SDS011;64862;54.398;10.126;2022-11-14T04:39:22;41.63;;;25.13;;
16967;SDS011;64862;54.398;10.126;2022-11-14T04:42:10;40.70;;;24.58;;
16967;SDS011;64862;54.398;10.126;2022-11-14T04:44:55;41.60;;;25.05;;
16967;SDS011;64862;54.398;10.126;2022-11-14T04:47:41;40.80;;;24.75;;
16967;SDS011;64862;54.398;10.126;2022-11-14T04:50:28;40.83;;;24.63;;
16967;SDS011;64862;54.398;10.126;2022-11-14T04:53:13;38.40;;;24.73;;
16967;SDS011;64862;54.398;10.126;2022-11-14T04:55:59;39.58;;;24.42;;
16967;SDS011;64862;54.398;10.126;2022-11-14T04:58:44;41.53;;;24.45;;
16967;SDS011;64862;54.398;10.126;2022-11-14T05:01:30;41.80;;;24.90;;
16967;SDS011;64862;54.398;10.126;2022-11-14T05:04:15;40.00;;;24.77;;
16967;SDS011;64862;54.398;10.126;2022-11-14T05:07:02;38.80;;;23.20;;
16967;SDS011;64862;54.398;10.126;2022-11-14T05:09:48;38.90;;;24.63;;
16967;SDS011;64862;54.398;10.126;2022-11-14T05:12:33;42.08;;;25.15;;
16967;SDS011;64862;54.398;10.126;2022-11-14T05:15:19;39.03;;;23.95;;
16967;SDS011;64862;54.398;10.126;2022-11-14T05:18:04;41.05;;;25.10;;
16967;SDS011;64862;54.398;10.126;2022-11-14T05:20:50;39.78;;;25.27;;
16967;SDS011;64862;54.398;10.126;2022-11-14T05:23:37;42.38;;;25.40;;
16967;SDS011;64862;54.398;10.126;2022-11-14T05:26:22;36.55;;;23.20;;
16967;SDS011;64862;54.398;10.126;2022-11-14T05:29:08;52.58;;;27.40;;
16967;SDS011;64862;54.398;10.126;2022-11-14T05:31:54;34.67;;;22.95;;
16967;SDS011;64862;54.398;10.126;2022-11-14T05:34:40;39.80;;;23.25;;
16967;SDS011;64862;54.398;10.126;2022-11-14T05:37:25;61.55;;;29.45;;
16967;SDS011;64862;54.398;10.126;2022-11-14T05:40:12;36.55;;;23.13;;
16967;SDS011;64862;54.398;10.126;2022-11-14T05:42:59;47.10;;;26.08;;
16967;SDS011;64862;54.398;10.126;2022-11-14T05:45:45;41.63;;;24.88;;
16967;SDS011;64862;54.398;10.126;2022-11-14T05:48:30;37.40;;;23.55;;
16967;SDS011;64862;54.398;10.126;2022-11-14T05:51:16;42.35;;;25.83;;
16967;SDS011;64862;54.398;10.126;2022-11-14T05:54:01;40.95;;;23.83;;
16967;SDS011;64862;54.398;10.126;2022-11-14T05:56:51;36.42;;;22.73;;
16967;SDS011;64862;54.398;10.126;2022-11-14T05:59:36;45.95;;;24.83;;
16967;SDS011;64862;54.398;10.126;2022-11-14T06:02:22;37.22;;;23.25;;
16967;SDS011;64862;54.398;10.126;2022-11-14T06:05:08;50.40;;;28.08;;
16967;SDS011;64862;54.398;10.126;2022-11-14T06:07:54;35.70;;;23.60;;
16967;SDS011;64862;54.398;10.126;2022-11-14T06:10:40;38.90;;;23.27;;
16967;SDS011;64862;54.398;10.126;2022-11-14T06:13:27;39.53;;;24.35;;
16967;SDS011;64862;54.398;10.126;2022-11-14T06:16:14;38.05;;;23.30;;
16967;SDS011;64862;54.398;10.126;2022-11-14T06:19:00;36.40;;;23.17;;
16967;SDS011;64862;54.398;10.126;2022-11-14T06:21:47;35.05;;;22.17;;
16967;SDS011;64862;54.398;10.126;2022-11-14T06:24:33;36.25;;;24.25;;
16967;SDS011;64862;54.398;10.126;2022-11-14T06:27:18;41.67;;;24.05;;
16967;SDS011;64862;54.398;10.126;2022-11-14T06:30:06;34.92;;;23.77;;
16967;SDS011;64862;54.398;10.126;2022-11-14T06:32:55;35.45;;;22.65;;
16967;SDS011;64862;54.398;10.126;2022-11-14T06:35:41;34.42;;;22.95;;
16967;SDS011;64862;54.398;10.126;2022-11-14T06:38:27;32.70;;;21.83;;
16967;SDS011;64862;54.398;10.126;2022-11-14T06:41:15;36.00;;;23.23;;
16967;SDS011;64862;54.398;10.126;2022-11-14T06:44:01;36.08;;;23.38;;
16967;SDS011;64862;54.398;10.126;2022-11-14T06:46:51;36.97;;;23.40;;
16967;SDS011;64862;54.398;10.126;2022-11-14T06:49:36;35.97;;;23.83;;
16967;SDS011;64862;54.398;10.126;2022-11-14T06:52:21;36.67;;;22.85;;
16967;SDS011;64862;54.398;10.126;2022-11-14T06:55:08;35.30;;;22.83;;
16967;SDS011;64862;54.398;10.126;2022-11-14T06:57:54;36.45;;;23.50;;
16967;SDS011;64862;54.398;10.126;2022-11-14T07:00:39;35.55;;;23.77;;
16967;SDS011;64862;54.398;10.126;2022-11-14T07:03:26;36.20;;;23.88;;
16967;SDS011;64862;54.398;10.126;2022-11-14T07:06:12;35.10;;;23.17;;
16967;SDS011;64862;54.398;10.126;2022-11-14T07:08:59;35.60;;;22.48;;
16967;SDS011;64862;54.398;10.126;2022-11-14T07:11:45;37.63;;;23.92;;
16967;SDS011;64862;54.398;10.126;2022-11-14T07:14:30;35.03;;;22.83;;
16967;SDS011;64862;54.398;10.126;2022-11-14T07:17:16;36.60;;;23.77;;
16967;SDS011;64862;54.398;10.126;2022-11-14T07:20:03;36.72;;;23.65;;
16967;SDS011;64862;54.398;10.126;2022-11-14T07:22:50;34.20;;;22.70;;
16967;SDS011;64862;54.398;10.126;2022-11-14T07:25:36;35.35;;;22.85;;
16967;SDS011;64862;54.398;10.126;2022-11-14T07:28:21;35.08;;;23.52;;
16967;SDS011;64862;54.398;10.126;2022-11-14T07:31:07;36.60;;;23.15;;
16967;SDS011;64862;54.398;10.126;2022-11-14T07:33:55;36.13;;;23.30;;
16967;SDS011;64862;54.398;10.126;2022-11-14T07:36:42;37.40;;;23.58;;
16967;SDS011;64862;54.398;10.126;2022-11-14T07:39:27;34.95;;;22.02;;
16967;SDS011;64862;54.398;10.126;2022-11-14T07:42:12;41.05;;;23.67;;
16967;SDS011;64862;54.398;10.126;2022-11-14T07:44:58;36.30;;;23.52;;
16967;SDS011;64862;54.398;10.126;2022-11-14T07:47:43;37.20;;;24.02;;
16967;SDS011;64862;54.398;10.126;2022-11-14T07:50:29;34.50;;;23.10;;
16967;SDS011;64862;54.398;10.126;2022-11-14T07:53:17;38.72;;;24.65;;
16967;SDS011;64862;54.398;10.126;2022-11-14T07:56:04;39.05;;;23.83;;
16967;SDS011;64862;54.398;10.126;2022-11-14T07:58:52;39.97;;;23.50;;
16967;SDS011;64862;54.398;10.126;2022-11-14T08:01:37;39.42;;;24.08;;
16967;SDS011;64862;54.398;10.126;2022-11-14T08:04:23;41.20;;;24.77;;
16967;SDS011;64862;54.398;10.126;2022-11-14T08:07:09;41.25;;;25.42;;
16967;SDS011;64862;54.398;10.126;2022-11-14T08:09:56;40.58;;;25.67;;
16967;SDS011;64862;54.398;10.126;2022-11-14T08:12:41;43.95;;;24.95;;
16967;SDS011;64862;54.398;10.126;2022-11-14T08:15:27;40.90;;;24.65;;
16967;SDS011;64862;54.398;10.126;2022-11-14T08:18:12;39.17;;;24.98;;
16967;SDS011;64862;54.398;10.126;2022-11-14T08:20:58;41.60;;;24.77;;
16967;SDS011;64862;54.398;10.126;2022-11-14T08:23:47;40.42;;;24.00;;
16967;SDS011;64862;54.398;10.126;2022-11-14T08:26:34;42.20;;;25.65;;
16967;SDS011;64862;54.398;10.126;2022-11-14T08:29:20;43.75;;;25.90;;
16967;SDS011;64862;54.398;10.126;2022-11-14T08:32:05;42.55;;;24.83;;
16967;SDS011;64862;54.398;10.126;2022-11-14T08:34:51;41.22;;;25.25;;
16967;SDS011;64862;54.398;10.126;2022-11-14T08:37:36;47.30;;;26.52;;
16967;SDS011;64862;54.398;10.126;2022-11-14T08:40:22;45.47;;;25.65;;
16967;SDS011;64862;54.398;10.126;2022-11-14T08:43:09;50.42;;;27.50;;
16967;SDS011;64862;54.398;10.126;2022-11-14T08:45:55;48.63;;;27.35;;
16967;SDS011;64862;54.398;10.126;2022-11-14T08:48:42;47.50;;;27.80;;
16967;SDS011;64862;54.398;10.126;2022-11-14T08:51:27;49.83;;;28.00;;
16967;SDS011;64862;54.398;10.126;2022-11-14T08:54:13;49.05;;;28.77;;
16967;SDS011;64862;54.398;10.126;2022-11-14T08:56:58;55.78;;;29.48;;
16967;SDS011;64862;54.398;10.126;2022-11-14T08:59:45;53.22;;;29.20;;
16967;SDS011;64862;54.398;10.126;2022-11-14T09:02:31;57.35;;;28.50;;
16967;SDS011;64862;54.398;10.126;2022-11-14T09:05:17;59.95;;;30.58;;
16967;SDS011;64862;54.398;10.126;2022-11-14T09:08:03;54.22;;;30.33;;
16967;SDS011;64862;54.398;10.126;2022-11-14T09:10:48;53.63;;;29.63;;
16967;SDS011;64862;54.398;10.126;2022-11-14T09:13:34;56.60;;;29.98;;
16967;SDS011;64862;54.398;10.126;2022-11-14T09:16:21;55.40;;;29.30;;
16967;SDS011;64862;54.398;10.126;2022-11-14T09:19:06;57.65;;;30.05;;
16967;SDS011;64862;54.398;10.126;2022-11-14T09:21:52;53.83;;;30.13;;
16967;SDS011;64862;54.398;10.126;2022-11-14T09:24:37;55.30;;;30.63;;
16967;SDS011;64862;54.398;10.126;2022-11-14T09:27:25;54.70;;;29.85;;
16967;SDS011;64862;54.398;10.126;2022-11-14T09:30:11;57.70;;;31.40;;
16967;SDS011;64862;54.398;10.126;2022-11-14T09:32:59;55.70;;;30.10;;
16967;SDS011;64862;54.398;10.126;2022-11-14T09:35:45;52.13;;;29.20;;
16967;SDS011;64862;54.398;10.126;2022-11-14T09:38:31;54.75;;;30.77;;
16967;SDS011;64862;54.398;10.126;2022-11-14T09:41:22;55.88;;;30.98;;
16967;SDS011;64862;54.398;10.126;2022-11-14T09:44:15;57.17;;;31.00;;
16967;SDS011;64862;54.398;10.126;2022-11-14T09:47:11;61.05;;;31.55;;
16967;SDS011;64862;54.398;10.126;2022-11-14T09:50:06;60.17;;;31.70;;
16967;SDS011;64862;54.398;10.126;2022-11-14T09:52:57;54.92;;;30.90;;
16967;SDS011;64862;54.398;10.126;2022-11-14T09:55:47;58.53;;;32.10;;
16967;SDS011;64862;54.398;10.126;2022-11-14T09:58:32;56.33;;;31.17;;
16967;SDS011;64862;54.398;10.126;2022-11-14T10:01:27;58.03;;;31.83;;
16967;SDS011;64862;54.398;10.126;2022-11-14T10:04:22;60.20;;;31.50;;
16967;SDS011;64862;54.398;10.126;2022-11-14T10:07:16;54.67;;;31.35;;
16967;SDS011;64862;54.398;10.126;2022-11-14T10:10:13;54.13;;;29.65;;
16967;SDS011;64862;54.398;10.126;2022-11-14T10:13:09;52.58;;;29.00;;
16967;SDS011;64862;54.398;10.126;2022-11-14T10:16:10;56.83;;;29.38;;
16967;SDS011;64862;54.398;10.126;2022-11-14T10:19:05;52.42;;;28.40;;
16967;SDS011;64862;54.398;10.126;2022-11-14T10:22:03;53.22;;;29.95;;
16967;SDS011;64862;54.398;10.126;2022-11-14T10:25:06;54.55;;;30.45;;
16967;SDS011;64862;54.398;10.126;2022-11-14T10:28:07;57.40;;;30.70;;
16967;SDS011;64862;54.398;10.126;2022-11-14T10:31:05;61.08;;;32.15;;
16967;SDS011;64862;54.398;10.126;2022-11-14T10:33:58;60.17;;;32.30;;
16967;SDS011;64862;54.398;10.126;2022-11-14T10:36:53;62.78;;;33.10;;
16967;SDS011;64862;54.398;10.126;2022-11-14T10:39:45;58.47;;;31.35;;
16967;SDS011;64862;54.398;10.126;2022-11-14T10:42:35;58.60;;;30.67;;
16967;SDS011;64862;54.398;10.126;2022-11-14T10:45:23;60.97;;;31.75;;
16967;SDS011;64862;54.398;10.126;2022-11-14T10:48:13;57.30;;;30.17;;
16967;SDS011;64862;54.398;10.126;2022-11-14T10:51:05;51.38;;;28.52;;
16967;SDS011;64862;54.398;10.126;2022-11-14T10:53:57;57.38;;;30.13;;
16967;SDS011;64862;54.398;10.126;2022-11-14T10:56:47;56.65;;;31.42;;
16967;SDS011;64862;54.398;10.126;2022-11-14T10:59:35;56.97;;;30.48;;
16967;SDS011;64862;54.398;10.126;2022-11-14T11:02:21;52.90;;;29.33;;
16967;SDS011;64862;54.398;10.126;2022-11-14T11:05:10;56.38;;;30.67;;
16967;SDS011;64862;54.398;10.126;2022-11-14T11:07:59;57.00;;;31.20;;
16967;SDS011;64862;54.398;10.126;2022-11-14T11:11:03;60.35;;;30.08;;
16967;SDS011;64862;54.398;10.126;2022-11-14T11:14:14;58.33;;;29.63;;
16967;SDS011;64862;54.398;10.126;2022-11-14T11:17:15;58.97;;;31.33;;
16967;SDS011;64862;54.398;10.126;2022-11-14T11:23:17;59.13;;;31.20;;
16967;SDS011;64862;54.398;10.126;2022-11-14T11:26:06;59.45;;;31.50;;
16967;SDS011;64862;54.398;10.126;2022-11-14T11:29:04;57.75;;;30.65;;
16967;SDS011;64862;54.398;10.126;2022-11-14T11:31:53;58.05;;;30.17;;
16967;SDS011;64862;54.398;10.126;2022-11-14T11:34:40;56.97;;;29.42;;
16967;SDS011;64862;54.398;10.126;2022-11-14T11:37:26;57.15;;;30.45;;
16967;SDS011;64862;54.398;10.126;2022-11-14T11:40:18;57.90;;;30.13;;
16967;SDS011;64862;54.398;10.126;2022-11-14T11:43:08;61.28;;;31.52;;
16967;SDS011;64862;54.398;10.126;2022-11-14T11:45:57;56.10;;;29.98;;
16967;SDS011;64862;54.398;10.126;2022-11-14T11:48:47;56.40;;;30.02;;
16967;SDS011;64862;54.398;10.126;2022-11-14T11:51:39;56.67;;;28.83;;
16967;SDS011;64862;54.398;10.126;2022-11-14T11:54:27;51.90;;;28.52;;
16967;SDS011;64862;54.398;10.126;2022-11-14T11:57:17;53.60;;;28.98;;
16967;SDS011;64862;54.398;10.126;2022-11-14T12:00:14;53.75;;;29.38;;
16967;SDS011;64862;54.398;10.126;2022-11-14T12:03:03;52.53;;;28.67;;
16967;SDS011;64862;54.398;10.126;2022-11-14T12:05:57;54.80;;;28.67;;
16967;SDS011;64862;54.398;10.126;2022-11-14T12:09:00;50.25;;;28.38;;
16967;SDS011;64862;54.398;10.126;2022-11-14T12:11:56;55.38;;;29.33;;
16967;SDS011;64862;54.398;10.126;2022-11-14T12:14:51;55.53;;;29.40;;
16967;SDS011;64862;54.398;10.126;2022-11-14T12:17:52;56.05;;;29.80;;
16967;SDS011;64862;54.398;10.126;2022-11-14T12:21:02;55.28;;;30.08;;
16967;SDS011;64862;54.398;10.126;2022-11-14T12:24:03;55.72;;;29.05;;
16967;SDS011;64862;54.398;10.126;2022-11-14T12:27:04;52.00;;;28.35;;
16967;SDS011;64862;54.398;10.126;2022-11-14T12:30:08;50.10;;;28.88;;
16967;SDS011;64862;54.398;10.126;2022-11-14T12:32:58;55.95;;;29.58;;
16967;SDS011;64862;54.398;10.126;2022-11-14T12:35:48;52.75;;;29.05;;
16967;SDS011;64862;54.398;10.126;2022-11-14T12:38:39;55.20;;;31.00;;
16967;SDS011;64862;54.398;10.126;2022-11-14T12:41:29;51.15;;;28.55;;
16967;SDS011;64862;54.398;10.126;2022-11-14T12:44:17;56.08;;;29.63;;
16967;SDS011;64862;54.398;10.126;2022-11-14T12:47:18;56.95;;;32.28;;
16967;SDS011;64862;54.398;10.126;2022-11-14T12:56:43;55.22;;;30.25;;
16967;SDS011;64862;54.398;10.126;2022-11-14T12:59:48;55.85;;;29.45;;
16967;SDS011;64862;54.398;10.126;2022-11-14T13:02:49;52.50;;;29.20;;
16967;SDS011;64862;54.398;10.126;2022-11-14T13:05:53;50.65;;;28.77;;
16967;SDS011;64862;54.398;10.126;2022-11-14T13:08:46;52.33;;;28.95;;
16967;SDS011;64862;54.398;10.126;2022-11-14T13:11:46;54.63;;;29.75;;
16967;SDS011;64862;54.398;10.126;2022-11-14T13:18:01;54.60;;;29.98;;
16967;SDS011;64862;54.398;10.126;2022-11-14T13:21:18;57.03;;;29.98;;
16967;SDS011;64862;54.398;10.126;2022-11-14T13:24:25;57.13;;;29.95;;
16967;SDS011;64862;54.398;10.126;2022-11-14T13:27:25;56.50;;;30.50;;
16967;SDS011;64862;54.398;10.126;2022-11-14T13:30:11;53.70;;;29.08;;
16967;SDS011;64862;54.398;10.126;2022-11-14T13:32:57;59.75;;;30.70;;
16967;SDS011;64862;54.398;10.126;2022-11-14T13:35:55;48.45;;;28.05;;
16967;SDS011;64862;54.398;10.126;2022-11-14T13:42:18;54.25;;;29.50;;
16967;SDS011;64862;54.398;10.126;2022-11-14T13:51:44;52.38;;;29.02;;
16967;SDS011;64862;54.398;10.126;2022-11-14T13:54:31;58.50;;;31.35;;
16967;SDS011;64862;54.398;10.126;2022-11-14T13:57:19;57.97;;;30.80;;
16967;SDS011;64862;54.398;10.126;2022-11-14T14:00:17;59.08;;;30.63;;
16967;SDS011;64862;54.398;10.126;2022-11-14T14:03:06;59.63;;;30.77;;
16967;SDS011;64862;54.398;10.126;2022-11-14T14:06:07;57.92;;;31.30;;
16967;SDS011;64862;54.398;10.126;2022-11-14T14:09:06;58.30;;;31.20;;
16967;SDS011;64862;54.398;10.126;2022-11-14T14:12:02;55.40;;;29.50;;
16967;SDS011;64862;54.398;10.126;2022-11-14T14:15:03;59.38;;;30.65;;
16967;SDS011;64862;54.398;10.126;2022-11-14T14:18:00;56.45;;;30.77;;
16967;SDS011;64862;54.398;10.126;2022-11-14T14:20:53;58.75;;;30.95;;
16967;SDS011;64862;54.398;10.126;2022-11-14T14:23:48;60.80;;;31.00;;
16967;SDS011;64862;54.398;10.126;2022-11-14T14:26:45;60.78;;;29.83;;
16967;SDS011;64862;54.398;10.126;2022-11-14T14:29:44;55.13;;;29.65;;
16967;SDS011;64862;54.398;10.126;2022-11-14T14:32:36;57.30;;;30.37;;
16967;SDS011;64862;54.398;10.126;2022-11-14T14:35:25;55.90;;;30.65;;
16967;SDS011;64862;54.398;10.126;2022-11-14T14:38:20;58.72;;;30.92;;
16967;SDS011;64862;54.398;10.126;2022-11-14T14:41:10;60.03;;;30.95;;
16967;SDS011;64862;54.398;10.126;2022-11-14T14:43:58;61.55;;;31.15;;
16967;SDS011;64862;54.398;10.126;2022-11-14T14:46:44;61.92;;;32.58;;
16967;SDS011;64862;54.398;10.126;2022-11-14T14:49:31;66.10;;;32.67;;
16967;SDS011;64862;54.398;10.126;2022-11-14T14:52:24;58.08;;;30.23;;
16967;SDS011;64862;54.398;10.126;2022-11-14T14:55:17;61.40;;;32.70;;
16967;SDS011;64862;54.398;10.126;2022-11-14T14:58:13;69.18;;;33.40;;
16967;SDS011;64862;54.398;10.126;2022-11-14T15:01:00;64.43;;;32.75;;
16967;SDS011;64862;54.398;10.126;2022-11-14T15:03:49;65.93;;;34.35;;
16967;SDS011;64862;54.398;10.126;2022-11-14T15:06:37;65.30;;;33.05;;
16967;SDS011;64862;54.398;10.126;2022-11-14T15:09:25;66.43;;;32.17;;
16967;SDS011;64862;54.398;10.126;2022-11-14T15:12:12;67.55;;;32.72;;
16967;SDS011;64862;54.398;10.126;2022-11-14T15:14:58;72.38;;;32.58;;
16967;SDS011;64862;54.398;10.126;2022-11-14T15:17:45;62.85;;;31.02;;
16967;SDS011;64862;54.398;10.126;2022-11-14T15:20:32;67.40;;;32.60;;
16967;SDS011;64862;54.398;10.126;2022-11-14T15:23:18;66.93;;;32.22;;
16967;SDS011;64862;54.398;10.126;2022-11-14T15:26:09;64.00;;;32.78;;
16967;SDS011;64862;54.398;10.126;2022-11-14T15:29:04;65.80;;;31.73;;
16967;SDS011;64862;54.398;10.126;2022-11-14T15:31:51;65.40;;;33.47;;
16967;SDS011;64862;54.398;10.126;2022-11-14T15:34:39;69.55;;;33.60;;
16967;SDS011;64862;54.398;10.126;2022-11-14T15:37:27;66.63;;;32.85;;
16967;SDS011;64862;54.398;10.126;2022-11-14T15:40:16;64.03;;;31.98;;
16967;SDS011;64862;54.398;10.126;2022-11-14T15:49:30;65.55;;;32.33;;
16967;SDS011;64862;54.398;10.126;2022-11-14T15:52:17;69.35;;;34.22;;
16967;SDS011;64862;54.398;10.126;2022-11-14T15:55:09;68.60;;;33.80;;
16967;SDS011;64862;54.398;10.126;2022-11-14T15:57:57;66.68;;;32.53;;
16967;SDS011;64862;54.398;10.126;2022-11-14T16:00:45;69.45;;;33.83;;
16967;SDS011;64862;54.398;10.126;2022-11-14T16:03:33;71.40;;;33.80;;
16967;SDS011;64862;54.398;10.126;2022-11-14T16:06:19;70.47;;;34.53;;
16967;SDS011;64862;54.398;10.126;2022-11-14T16:09:05;75.05;;;36.55;;
16967;SDS011;64862;54.398;10.126;2022-11-14T16:11:55;69.88;;;35.90;;
16967;SDS011;64862;54.398;10.126;2022-11-14T16:14:41;69.40;;;34.95;;
16967;SDS011;64862;54.398;10.126;2022-11-14T16:17:32;70.63;;;34.75;;
16967;SDS011;64862;54.398;10.126;2022-11-14T16:20:23;75.78;;;35.47;;
16967;SDS011;64862;54.398;10.126;2022-11-14T16:23:10;69.00;;;35.75;;
16967;SDS011;64862;54.398;10.126;2022-11-14T16:25:59;80.32;;;36.72;;
16967;SDS011;64862;54.398;10.126;2022-11-14T16:28:44;76.65;;;35.03;;
16967;SDS011;64862;54.398;10.126;2022-11-14T16:31:30;78.78;;;37.00;;
16967;SDS011;64862;54.398;10.126;2022-11-14T16:34:18;79.00;;;36.90;;
16967;SDS011;64862;54.398;10.126;2022-11-14T16:37:08;81.72;;;37.88;;
16967;SDS011;64862;54.398;10.126;2022-11-14T16:39:56;74.25;;;36.08;;
16967;SDS011;64862;54.398;10.126;2022-11-14T16:42:41;73.80;;;37.30;;